Time;durP1;ratioP1;P1;durP2;ratioP2;P2;SDS_P1;SDS_P2;PMS_P1;PMS_P2;Temp;Humidity;BMP_temperature;BMP_pressure;BME280_temperature;BME280_humidity;BME280_pressure;Samples;Min_cycle;Max_cycle;Signal;HPM_P1;HPM_P2
2022/10/31 00:00:07;;;;;;;49.22;27.65;;;11.80;99.90;;;;;;5076578;28;20052;-74
2022/10/31 00:02:33;;;;;;;49.03;29.02;;;11.80;99.90;;;;;;5076547;28;20041;-73
2022/10/31 00:04:59;;;;;;;43.53;26.63;;;11.70;99.90;;;;;;5076311;28;20054;-73
2022/10/31 00:07:24;;;;;;;51.80;28.20;;;11.70;99.90;;;;;;5076256;28;20051;-72
2022/10/31 00:09:50;;;;;;;43.08;27.70;;;11.70;99.90;;;;;;5076275;28;20063;-74
2022/10/31 00:12:15;;;;;;;45.67;26.85;;;11.70;99.90;;;;;;5066560;28;20074;-74
2022/10/31 00:14:41;;;;;;;49.65;27.67;;;12.00;99.90;;;;;;5056309;28;20045;-72
2022/10/31 00:17:06;;;;;;;42.65;26.58;;;11.50;99.90;;;;;;5056395;28;20040;-73
2022/10/31 00:19:32;;;;;;;51.42;29.88;;;11.60;99.90;;;;;;5056279;28;20105;-73
2022/10/31 00:21:58;;;;;;;61.72;33.17;;;11.50;99.90;;;;;;5056370;28;20041;-72
2022/10/31 00:24:23;;;;;;;65.43;33.67;;;11.50;99.90;;;;;;5056619;28;20040;-74
2022/10/31 00:26:49;;;;;;;52.22;29.08;;;11.40;99.90;;;;;;5056017;28;20146;-72
2022/10/31 00:29:14;;;;;;;43.70;26.70;;;11.40;99.90;;;;;;5067276;28;20056;-72
2022/10/31 00:31:40;;;;;;;60.63;29.92;;;11.30;99.90;;;;;;5075558;28;20452;-72
2022/10/31 00:34:06;;;;;;;45.28;28.48;;;11.50;99.90;;;;;;5076571;28;20047;-73
2022/10/31 00:36:31;;;;;;;51.22;29.25;;;11.30;99.90;;;;;;5075746;28;20452;-73
2022/10/31 00:38:58;;;;;;;48.65;29.88;;;11.30;99.90;;;;;;5057976;28;20076;-74
2022/10/31 00:41:24;;;;;;;74.60;34.33;;;11.30;99.90;;;;;;5058210;28;20048;-74
2022/10/31 00:43:49;;;;;;;53.08;32.22;;;11.30;99.90;;;;;;5076095;28;20047;-72
2022/10/31 00:46:15;;;;;;;65.38;33.30;;;11.30;99.90;;;;;;5061666;28;20055;-73
2022/10/31 00:48:41;;;;;;;58.53;31.92;;;11.20;99.90;;;;;;5055768;28;20048;-74
2022/10/31 00:51:07;;;;;;;65.95;32.65;;;11.20;99.90;;;;;;5037305;28;20044;-74
2022/10/31 00:53:33;;;;;;;63.55;34.85;;;11.20;99.90;;;;;;5056073;28;20052;-73
2022/10/31 00:55:58;;;;;;;51.83;30.58;;;11.20;99.90;;;;;;5056035;28;20041;-74
2022/10/31 00:58:24;;;;;;;59.67;31.40;;;11.20;99.90;;;;;;5055529;28;20041;-72
2022/10/31 01:00:56;;;;;;;59.65;31.48;;;11.10;99.90;;;;;;5067172;28;20058;-73
2022/10/31 01:03:24;;;;;;;53.80;29.58;;;11.10;99.90;;;;;;5075310;28;20051;-72
2022/10/31 01:06:01;;;;;;;59.80;31.13;;;11.10;99.90;;;;;;5075229;28;20044;-74
2022/10/31 01:08:27;;;;;;;67.78;36.83;;;11.10;99.90;;;;;;5075751;28;20340;-73
2022/10/31 01:11:09;;;;;;;53.35;30.10;;;11.10;99.90;;;;;;5062238;28;20048;-73
2022/10/31 01:13:35;;;;;;;45.40;28.35;;;11.10;99.90;;;;;;5054998;28;20084;-72
2022/10/31 01:16:02;;;;;;;58.38;32.90;;;11.10;99.90;;;;;;5055560;28;20491;-72
2022/10/31 01:18:28;;;;;;;74.55;37.33;;;11.10;99.90;;;;;;5054974;28;20077;-72
2022/10/31 01:20:58;;;;;;;61.75;31.85;;;11.10;99.90;;;;;;5055105;28;20045;-70
2022/10/31 01:23:24;;;;;;;56.72;31.13;;;11.10;99.90;;;;;;5055033;28;20051;-70
2022/10/31 01:25:58;;;;;;;59.00;30.27;;;11.10;99.90;;;;;;5055153;28;20120;-73
2022/10/31 01:28:23;;;;;;;;;;;11.10;99.90;;;;;;5055437;28;20045;-72
2022/10/31 01:30:49;;;;;;;68.95;33.35;;;11.10;99.90;;;;;;5037850;28;20067;-74
2022/10/31 01:33:14;;;;;;;77.25;35.80;;;11.00;99.90;;;;;;5061803;28;20032;-72
2022/10/31 01:35:40;;;;;;;55.67;30.35;;;11.20;99.90;;;;;;5074982;28;20343;-70
2022/10/31 01:38:05;;;;;;;61.10;32.60;;;11.10;99.90;;;;;;5074860;28;20048;-70
2022/10/31 01:40:31;;;;;;;48.38;29.10;;;11.10;99.90;;;;;;5075050;28;20045;-70
2022/10/31 01:42:57;;;;;;;51.78;29.63;;;11.10;99.90;;;;;;5074932;28;20045;-71
2022/10/31 01:45:22;;;;;;;59.08;29.98;;;11.10;99.90;;;;;;5058158;28;20338;-71
2022/10/31 01:47:49;;;;;;;55.33;28.80;;;11.10;99.90;;;;;;5069217;28;20057;-71
2022/10/31 01:50:31;;;;;;;46.00;30.05;;;11.20;99.90;;;;;;5054840;28;20049;-70
2022/10/31 01:52:57;;;;;;;62.88;30.83;;;11.20;99.90;;;;;;5054959;28;20064;-70
2022/10/31 01:55:26;;;;;;;57.40;31.15;;;11.20;99.90;;;;;;5054857;28;20128;-70
2022/10/31 01:57:54;;;;;;;53.13;28.80;;;11.20;99.90;;;;;;5054803;28;20045;-70
2022/10/31 02:00:21;;;;;;;43.83;26.77;;;11.20;99.90;;;;;;5054667;28;20475;-71
2022/10/31 02:02:49;;;;;;;44.97;25.65;;;11.10;99.90;;;;;;5062929;28;20074;-70
2022/10/31 02:05:18;;;;;;;39.35;25.02;;;11.10;99.90;;;;;;5079100;28;20040;-72
2022/10/31 02:07:53;;;;;;;49.58;25.30;;;11.30;99.90;;;;;;5061723;28;20060;-70
2022/10/31 02:10:21;;;;;;;46.38;24.85;;;11.00;99.90;;;;;;5061389;28;20049;-72
2022/10/31 02:12:47;;;;;;;45.45;25.48;;;11.00;99.90;;;;;;5060732;28;20080;-70
2022/10/31 02:15:12;;;;;;;40.85;25.58;;;11.00;99.90;;;;;;5079112;28;20141;-70
2022/10/31 02:17:38;;;;;;;45.70;25.75;;;10.90;99.90;;;;;;5078549;28;20053;-71
2022/10/31 02:20:21;;;;;;;45.50;27.95;;;11.10;99.90;;;;;;5079170;28;20341;-71
2022/10/31 02:23:03;;;;;;;43.70;25.75;;;10.90;99.90;;;;;;5072708;28;20068;-70
2022/10/31 02:25:42;;;;;;;48.22;25.63;;;10.90;99.90;;;;;;5058277;28;20056;-71
2022/10/31 02:28:40;;;;;;;44.30;26.30;;;10.80;99.90;;;;;;5059328;28;20105;-72
2022/10/31 02:31:14;;;;;;;39.42;25.08;;;10.80;99.90;;;;;;5058476;28;20049;-71
2022/10/31 02:33:45;;;;;;;42.75;25.65;;;10.80;99.90;;;;;;5057847;28;20437;-71
2022/10/31 02:36:20;;;;;;;51.95;28.63;;;10.80;99.90;;;;;;5024086;28;20041;-69
2022/10/31 02:38:48;;;;;;;61.95;28.30;;;10.70;99.90;;;;;;5058207;28;20362;-70
2022/10/31 02:41:27;;;;;;;48.38;29.95;;;10.70;99.90;;;;;;5058064;28;20044;-71
2022/10/31 02:44:22;;;;;;;55.72;28.75;;;10.70;99.90;;;;;;5072502;28;20044;-70
2022/10/31 02:46:56;;;;;;;50.45;28.45;;;10.70;99.90;;;;;;5077839;28;20437;-71
2022/10/31 02:49:47;;;;;;;43.35;26.15;;;10.70;99.90;;;;;;5060120;28;20051;-70
2022/10/31 02:52:26;;;;;;;43.80;27.08;;;10.60;99.90;;;;;;5050072;28;20052;-70
2022/10/31 02:54:52;;;;;;;49.80;27.23;;;10.60;99.90;;;;;;5078369;28;20060;-71
2022/10/31 02:57:28;;;;;;;53.75;29.98;;;10.70;99.90;;;;;;5073677;28;20049;-70
2022/10/31 03:00:05;;;;;;;52.05;29.02;;;10.50;99.90;;;;;;5057417;28;20064;-71
2022/10/31 03:03:15;;;;;;;44.30;25.60;;;10.60;99.90;;;;;;5023356;28;20045;-70
2022/10/31 03:05:45;;;;;;;40.50;25.88;;;10.40;99.90;;;;;;5039842;28;20056;-72
2022/10/31 03:08:37;;;;;;;51.42;27.83;;;10.60;99.90;;;;;;5058136;28;20469;-71
2022/10/31 03:11:06;;;;;;;65.07;31.65;;;10.40;99.90;;;;;;5057344;28;20041;-71
2022/10/31 03:13:49;;;;;;;57.20;30.63;;;10.40;99.90;;;;;;5054232;28;20084;-70
2022/10/31 03:16:36;;;;;;;46.72;28.40;;;10.40;99.90;;;;;;5077371;28;20453;-72
2022/10/31 03:19:05;;;;;;;46.47;27.08;;;10.30;99.90;;;;;;5059643;28;20364;-71
2022/10/31 03:21:51;;;;;;;42.22;26.88;;;10.30;99.90;;;;;;5077216;28;20040;-71
2022/10/31 03:24:18;;;;;;;49.00;28.15;;;10.30;99.90;;;;;;5077356;28;20052;-71
2022/10/31 03:26:53;;;;;;;48.40;25.98;;;10.20;99.90;;;;;;5077294;28;20041;-70
2022/10/31 03:29:22;;;;;;;45.75;26.42;;;10.20;99.90;;;;;;5069054;28;20068;-71
2022/10/31 03:32:01;;;;;;;39.50;25.13;;;10.10;99.90;;;;;;5056957;28;20045;-70
2022/10/31 03:34:29;;;;;;;47.70;26.58;;;10.10;99.90;;;;;;5057026;28;20098;-70
2022/10/31 03:36:59;;;;;;;48.58;27.05;;;10.00;99.90;;;;;;5056657;28;20520;-71
2022/10/31 03:39:26;;;;;;;46.88;28.40;;;10.00;99.90;;;;;;5039717;28;20075;-70
2022/10/31 03:42:05;;;;;;;57.20;29.83;;;10.00;99.90;;;;;;5057069;28;20044;-72
2022/10/31 03:44:33;;;;;;;59.80;30.73;;;10.00;99.90;;;;;;5068450;28;20041;-72
2022/10/31 03:46:59;;;;;;;47.38;27.10;;;9.90;99.90;;;;;;5076839;28;20041;-70
2022/10/31 03:49:25;;;;;;;65.85;31.17;;;9.90;99.90;;;;;;5076727;28;20048;-71
2022/10/31 03:52:00;;;;;;;59.10;30.90;;;10.10;99.90;;;;;;5076732;28;20046;-71
2022/10/31 03:54:44;;;;;;;50.97;30.25;;;9.90;99.90;;;;;;5076684;28;20056;-72
2022/10/31 03:57:43;;;;;;;45.40;28.17;;;9.90;99.90;;;;;;5059433;28;20059;-71
2022/10/31 04:00:14;;;;;;;40.05;25.90;;;9.80;99.90;;;;;;5057185;28;20473;-72
2022/10/31 04:02:44;;;;;;;49.03;30.27;;;9.80;99.90;;;;;;5056386;28;20454;-70
2022/10/31 04:05:11;;;;;;;50.67;29.75;;;9.80;99.90;;;;;;5038834;28;20191;-72
2022/10/31 04:07:41;;;;;;;45.38;27.27;;;9.80;99.90;;;;;;5039054;28;20126;-71
2022/10/31 04:10:09;;;;;;;40.40;26.45;;;9.70;99.90;;;;;;5056770;28;20063;-71
2022/10/31 04:12:38;;;;;;;57.78;32.20;;;9.70;99.90;;;;;;5056429;28;20457;-71
2022/10/31 04:15:06;;;;;;;59.78;32.85;;;9.90;99.90;;;;;;5056333;28;20041;-72
2022/10/31 04:17:39;;;;;;;50.15;28.92;;;9.60;99.90;;;;;;5038430;28;20159;-72
2022/10/31 04:20:05;;;;;;;47.10;29.50;;;9.60;99.90;;;;;;5055828;28;20480;-70
2022/10/31 04:22:31;;;;;;;56.78;33.33;;;9.60;99.90;;;;;;5039048;28;20057;-70
2022/10/31 04:24:56;;;;;;;45.30;27.83;;;9.50;99.90;;;;;;5072452;28;20422;-70
2022/10/31 04:27:22;;;;;;;45.22;27.92;;;9.50;99.90;;;;;;5062585;28;20489;-71
2022/10/31 04:29:48;;;;;;;65.90;34.42;;;9.50;99.90;;;;;;5056213;28;20041;-71
2022/10/31 04:32:13;;;;;;;53.45;31.08;;;9.50;99.90;;;;;;5055974;28;20037;-71
2022/10/31 04:34:39;;;;;;;51.90;30.30;;;9.40;99.90;;;;;;5056378;28;20091;-70
2022/10/31 04:37:04;;;;;;;47.30;27.48;;;9.40;99.90;;;;;;5056477;28;20045;-70
2022/10/31 04:39:30;;;;;;;63.53;33.70;;;9.40;99.90;;;;;;5056478;28;20044;-71
2022/10/31 04:41:56;;;;;;;57.47;31.92;;;9.30;99.90;;;;;;5066287;28;20049;-71
2022/10/31 04:44:21;;;;;;;57.75;32.33;;;9.30;99.90;;;;;;5075888;28;20041;-71
2022/10/31 04:46:47;;;;;;;47.05;27.88;;;9.20;99.90;;;;;;5076376;28;20118;-71
2022/10/31 04:49:13;;;;;;;63.35;32.08;;;9.20;99.90;;;;;;5076047;28;20044;-72
2022/10/31 04:51:38;;;;;;;40.08;27.70;;;9.40;99.90;;;;;;5075547;28;20132;-71
2022/10/31 04:54:04;;;;;;;50.53;30.02;;;9.20;99.90;;;;;;5075609;28;20049;-71
2022/10/31 04:56:30;;;;;;;43.90;29.23;;;9.20;99.90;;;;;;5065373;28;20080;-70
2022/10/31 04:58:55;;;;;;;62.17;33.67;;;9.20;99.90;;;;;;5056021;28;20052;-72
2022/10/31 05:01:21;;;;;;;51.30;31.00;;;9.10;99.90;;;;;;5055797;28;20484;-70
2022/10/31 05:03:46;;;;;;;61.90;34.80;;;9.10;99.90;;;;;;5055309;28;20135;-70
2022/10/31 05:06:12;;;;;;;51.50;31.70;;;9.00;99.90;;;;;;5038196;28;20048;-71
2022/10/31 05:08:37;;;;;;;47.40;31.00;;;9.00;99.90;;;;;;5041254;28;20040;-71
2022/10/31 05:11:04;;;;;;;46.88;30.35;;;9.00;99.90;;;;;;5055758;28;20513;-71
2022/10/31 05:13:29;;;;;;;55.22;32.65;;;9.00;99.90;;;;;;5055241;28;20373;-70
2022/10/31 05:15:55;;;;;;;46.72;31.13;;;9.00;99.90;;;;;;5055807;28;20049;-72
2022/10/31 05:18:21;;;;;;;47.90;30.95;;;9.00;99.90;;;;;;5046464;28;20045;-71
2022/10/31 05:20:47;;;;;;;62.78;37.65;;;9.00;99.90;;;;;;5063489;28;20455;-72
2022/10/31 05:23:12;;;;;;;66.70;36.67;;;8.90;99.90;;;;;;5063630;28;20109;-70
2022/10/31 05:25:40;;;;;;;65.07;35.35;;;8.90;99.90;;;;;;5066459;28;20452;-74
2022/10/31 05:28:06;;;;;;;52.45;33.10;;;8.90;99.90;;;;;;5057055;28;20106;-72
2022/10/31 05:30:32;;;;;;;65.13;37.28;;;8.80;99.90;;;;;;5041344;28;20048;-71
2022/10/31 05:32:58;;;;;;;69.88;36.75;;;8.90;99.90;;;;;;5054910;28;20063;-72
2022/10/31 05:35:27;;;;;;;57.83;34.63;;;8.80;99.90;;;;;;5054937;28;20441;-72
2022/10/31 05:37:53;;;;;;;67.85;37.10;;;8.80;99.90;;;;;;5054482;28;20036;-73
2022/10/31 05:40:19;;;;;;;73.10;40.35;;;8.80;99.90;;;;;;5055227;28;20045;-73
2022/10/31 05:42:45;;;;;;;60.10;34.97;;;8.80;99.90;;;;;;5060566;28;20202;-71
2022/10/31 05:45:14;;;;;;;82.18;41.67;;;8.80;99.90;;;;;;5055063;28;20056;-72
2022/10/31 05:47:39;;;;;;;82.78;42.00;;;8.70;99.90;;;;;;5067875;28;20072;-71
2022/10/31 05:50:06;;;;;;;67.47;38.17;;;8.70;99.90;;;;;;5075147;28;20102;-72
2022/10/31 05:52:32;;;;;;;81.70;40.95;;;8.70;99.90;;;;;;5074719;28;20465;-71
2022/10/31 05:54:57;;;;;;;85.32;41.38;;;8.70;99.90;;;;;;5075158;28;20083;-73
2022/10/31 05:57:24;;;;;;;60.65;37.80;;;8.70;99.90;;;;;;5056964;28;20518;-72
2022/10/31 05:59:52;;;;;;;62.38;36.05;;;8.60;99.90;;;;;;5073885;28;20049;-70
2022/10/31 06:02:18;;;;;;;57.92;35.17;;;8.60;99.90;;;;;;5065865;28;20048;-68
2022/10/31 06:04:44;;;;;;;47.22;31.23;;;8.70;99.90;;;;;;5044760;28;20045;-70
2022/10/31 06:07:10;;;;;;;59.03;35.75;;;8.70;99.90;;;;;;5058058;28;20064;-72
2022/10/31 06:09:35;;;;;;;53.85;35.20;;;8.60;99.90;;;;;;5064052;28;20045;-72
2022/10/31 06:12:01;;;;;;;60.60;34.53;;;8.60;99.90;;;;;;5061976;28;20029;-72
2022/10/31 06:14:26;;;;;;;61.15;36.97;;;8.60;99.90;;;;;;5065637;28;20110;-71
2022/10/31 06:16:53;;;;;;;56.33;33.60;;;8.60;99.90;;;;;;5064997;28;20120;-72
2022/10/31 06:19:19;;;;;;;74.85;38.90;;;8.50;99.90;;;;;;5055864;28;20052;-72
2022/10/31 06:21:44;;;;;;;57.45;34.70;;;8.50;99.90;;;;;;5047411;28;20040;-72
2022/10/31 06:24:10;;;;;;;53.85;34.63;;;8.50;99.90;;;;;;5056077;28;20127;-72
2022/10/31 06:26:35;;;;;;;52.03;33.83;;;8.50;99.90;;;;;;5045650;28;20059;-73
2022/10/31 06:29:01;;;;;;;70.85;39.58;;;8.50;99.90;;;;;;5060999;28;20044;-73
2022/10/31 06:31:27;;;;;;;73.80;40.90;;;8.60;99.90;;;;;;5061165;28;20051;-74
2022/10/31 06:33:52;;;;;;;48.47;31.00;;;8.60;99.90;;;;;;5060098;28;20041;-72
2022/10/31 06:36:18;;;;;;;62.55;37.70;;;8.50;99.90;;;;;;5073323;28;20404;-72
2022/10/31 06:38:43;;;;;;;86.90;41.70;;;8.60;99.90;;;;;;5073885;28;20056;-71
2022/10/31 06:41:09;;;;;;;59.30;35.22;;;8.60;99.90;;;;;;5074464;28;20056;-72
2022/10/31 06:43:34;;;;;;;66.25;38.67;;;8.50;99.90;;;;;;5074002;28;20457;-72
2022/10/31 06:46:04;;;;;;;62.65;37.78;;;8.60;99.90;;;;;;5073828;28;20492;-71
2022/10/31 06:48:30;;;;;;;53.60;35.22;;;8.60;99.90;;;;;;5074441;28;20059;-71
2022/10/31 06:51:00;;;;;;;68.03;39.42;;;8.60;99.90;;;;;;5064498;28;20048;-72
2022/10/31 06:53:26;;;;;;;57.60;35.03;;;8.60;99.90;;;;;;5040320;28;20076;-71
2022/10/31 06:55:52;;;;;;;68.40;42.50;;;8.70;99.90;;;;;;5057176;28;20048;-72
2022/10/31 06:58:17;;;;;;;61.67;38.60;;;8.70;99.90;;;;;;5057479;28;20064;-73
2022/10/31 07:00:43;;;;;;;62.45;40.25;;;8.70;99.90;;;;;;5057088;28;20064;-72
2022/10/31 07:03:13;;;;;;;96.30;51.03;;;8.80;99.90;;;;;;5056794;28;20041;-71
2022/10/31 07:05:39;;;;;;;68.35;42.13;;;8.90;99.90;;;;;;5054966;28;20052;-70
2022/10/31 07:08:08;;;;;;;65.55;42.10;;;8.90;99.90;;;;;;5045397;28;20164;-71
2022/10/31 07:10:35;;;;;;;52.85;36.50;;;8.90;99.90;;;;;;5070421;28;20381;-70
2022/10/31 07:13:03;;;;;;;67.72;39.85;;;8.90;99.90;;;;;;5060065;28;20044;-71
2022/10/31 07:15:33;;;;;;;51.45;35.45;;;9.00;99.90;;;;;;5076967;28;20087;-70
2022/10/31 07:18:07;;;;;;;78.72;45.85;;;9.00;99.90;;;;;;5068850;28;20041;-72
2022/10/31 07:20:33;;;;;;;50.22;33.95;;;9.10;99.90;;;;;;5066719;28;20036;-72
2022/10/31 07:22:58;;;;;;;78.72;42.55;;;9.10;99.90;;;;;;5066232;28;20063;-71
2022/10/31 07:25:24;;;;;;;65.85;39.90;;;9.10;99.90;;;;;;5067211;28;20368;-70
2022/10/31 07:27:50;;;;;;;81.18;46.85;;;9.10;99.90;;;;;;5065696;28;20037;-71
2022/10/31 07:30:19;;;;;;;89.75;47.95;;;9.20;99.90;;;;;;5066620;28;20457;-70
2022/10/31 07:32:49;;;;;;;81.18;47.95;;;9.10;99.90;;;;;;5067122;28;20120;-72
2022/10/31 07:35:21;;;;;;;87.25;48.28;;;9.20;99.90;;;;;;5064012;28;20071;-71
2022/10/31 07:37:48;;;;;;;74.95;42.67;;;9.20;99.90;;;;;;5068594;28;20047;-71
2022/10/31 07:40:14;;;;;;;70.10;43.65;;;9.30;99.90;;;;;;5062690;28;20033;-71
2022/10/31 07:42:42;;;;;;;84.85;47.55;;;9.40;99.90;;;;;;5031363;28;20113;-72
2022/10/31 07:45:10;;;;;;;78.07;48.03;;;9.40;99.90;;;;;;5064616;28;20047;-70
2022/10/31 07:47:40;;;;;;;97.72;50.25;;;9.50;99.90;;;;;;5061482;28;20037;-71
2022/10/31 07:50:06;;;;;;;111.00;58.13;;;9.60;99.90;;;;;;5061502;28;20053;-70
2022/10/31 07:52:32;;;;;;;89.93;52.55;;;9.60;99.90;;;;;;5049479;28;20079;-72
2022/10/31 07:54:57;;;;;;;86.97;51.95;;;9.70;99.90;;;;;;5067037;28;20080;-72
2022/10/31 07:57:23;;;;;;;87.75;51.30;;;9.80;99.90;;;;;;5047406;28;20040;-72
2022/10/31 07:59:49;;;;;;;88.28;49.75;;;9.90;99.90;;;;;;5066382;28;20057;-71
2022/10/31 08:02:15;;;;;;;73.18;47.38;;;10.00;99.90;;;;;;5066972;28;20052;-72
2022/10/31 08:04:41;;;;;;;67.63;44.72;;;10.00;99.90;;;;;;5046605;28;20080;-72
2022/10/31 08:07:06;;;;;;;81.90;46.30;;;10.10;99.90;;;;;;5031771;28;20078;-73
2022/10/31 08:09:32;;;;;;;86.10;49.15;;;10.20;99.90;;;;;;5065422;28;20044;-72
2022/10/31 08:11:57;;;;;;;90.65;51.97;;;10.20;99.90;;;;;;5064362;28;20082;-71
2022/10/31 08:14:23;;;;;;;86.50;48.90;;;10.30;99.90;;;;;;5046516;28;20127;-72
2022/10/31 08:16:49;;;;;;;78.45;49.53;;;10.40;99.90;;;;;;5014810;28;20091;-71
2022/10/31 08:19:14;;;;;;;67.60;45.25;;;10.40;99.90;;;;;;5065064;28;20052;-72
2022/10/31 08:21:40;;;;;;;91.30;48.25;;;10.50;99.90;;;;;;5064718;28;20048;-71
2022/10/31 08:24:06;;;;;;;69.13;44.63;;;10.60;99.90;;;;;;5047780;28;20132;-72
2022/10/31 08:26:32;;;;;;;60.80;41.03;;;10.60;99.90;;;;;;5064408;28;20357;-71
2022/10/31 08:28:58;;;;;;;63.80;43.53;;;10.70;99.90;;;;;;5047250;28;20045;-71
2022/10/31 08:31:25;;;;;;;58.00;40.78;;;10.70;99.90;;;;;;5065795;28;20416;-69
2022/10/31 08:33:52;;;;;;;65.15;42.60;;;10.80;99.90;;;;;;5071867;28;20450;-72
2022/10/31 08:36:18;;;;;;;55.60;39.03;;;10.90;99.90;;;;;;5067196;28;20453;-70
2022/10/31 08:38:43;;;;;;;53.00;37.38;;;11.00;99.90;;;;;;5066943;28;20049;-70
2022/10/31 08:41:09;;;;;;;54.63;39.78;;;11.10;99.90;;;;;;5056925;28;20041;-71
2022/10/31 08:43:34;;;;;;;52.50;36.80;;;11.20;99.90;;;;;;5069021;28;20055;-70
2022/10/31 08:46:00;;;;;;;49.45;35.22;;;11.20;99.90;;;;;;5064319;28;20043;-72
2022/10/31 08:48:26;;;;;;;50.40;36.63;;;11.40;99.90;;;;;;5061171;28;20462;-69
2022/10/31 08:50:55;;;;;;;48.50;34.20;;;11.50;99.90;;;;;;5054392;28;20057;-69
2022/10/31 08:53:22;;;;;;;42.97;33.22;;;11.40;99.90;;;;;;5055024;28;20430;-68
2022/10/31 08:55:48;;;;;;;42.85;32.33;;;11.50;99.90;;;;;;5054758;28;20115;-69
2022/10/31 08:58:16;;;;;;;52.50;34.80;;;11.70;99.90;;;;;;5054861;28;20445;-69
2022/10/31 09:00:42;;;;;;;43.28;30.33;;;11.70;99.90;;;;;;5054930;28;20060;-69
2022/10/31 09:03:13;;;;;;;40.53;30.27;;;11.60;99.90;;;;;;5055004;28;20049;-71
2022/10/31 09:05:40;;;;;;;40.78;31.60;;;11.70;99.90;;;;;;5054957;28;20134;-70
2022/10/31 09:08:07;;;;;;;40.55;30.73;;;11.80;99.90;;;;;;5054119;28;20067;-71
2022/10/31 09:10:35;;;;;;;37.20;27.27;;;11.80;99.90;;;;;;5054811;28;20041;-70
2022/10/31 09:13:06;;;;;;;43.78;29.25;;;11.80;99.90;;;;;;5063916;28;20048;-70
2022/10/31 09:15:32;;;;;;;41.90;29.17;;;11.80;99.90;;;;;;5074754;28;20047;-70
2022/10/31 09:17:58;;;;;;;38.70;28.08;;;11.80;99.90;;;;;;5074984;28;20354;-70
2022/10/31 09:20:24;;;;;;;40.00;28.17;;;11.80;99.90;;;;;;5074550;28;20110;-70
2022/10/31 09:23:04;;;;;;;38.60;29.02;;;11.80;99.90;;;;;;5075075;28;20380;-70
2022/10/31 09:25:30;;;;;;;35.80;28.95;;;11.90;99.90;;;;;;5074750;28;20048;-70
2022/10/31 09:27:57;;;;;;;38.10;29.63;;;11.80;99.90;;;;;;5063016;28;20457;-70
2022/10/31 09:30:23;;;;;;;48.22;31.95;;;11.90;99.90;;;;;;5054826;28;20080;-70
2022/10/31 09:32:58;;;;;;;44.58;30.67;;;11.90;99.90;;;;;;5054464;28;20083;-70
2022/10/31 09:35:24;;;;;;;41.33;30.50;;;11.90;99.90;;;;;;5054689;28;20041;-71
2022/10/31 09:37:57;;;;;;;45.25;31.02;;;11.90;99.90;;;;;;5036863;28;20084;-70
2022/10/31 09:40:41;;;;;;;40.92;30.13;;;12.00;99.90;;;;;;5052793;28;20043;-70
2022/10/31 09:43:34;;;;;;;41.85;32.03;;;12.00;99.90;;;;;;5036257;28;20044;-70
2022/10/31 09:46:25;;;;;;;38.85;29.58;;;12.00;99.90;;;;;;5054211;28;20059;-70
2022/10/31 09:49:28;;;;;;;39.58;32.35;;;12.20;99.90;;;;;;5054362;28;20041;-70
2022/10/31 09:52:01;;;;;;;38.80;30.00;;;12.10;99.90;;;;;;5054612;28;20041;-70
2022/10/31 09:54:51;;;;;;;40.33;29.77;;;12.10;99.90;;;;;;5036868;28;20045;-70
2022/10/31 09:57:24;;;;;;;41.75;31.15;;;12.20;99.90;;;;;;5064153;28;20056;-70
2022/10/31 09:59:49;;;;;;;41.75;32.08;;;12.20;99.90;;;;;;5074572;28;20053;-70
2022/10/31 10:02:39;;;;;;;40.08;31.65;;;12.20;99.90;;;;;;5074399;28;20125;-70
2022/10/31 10:05:25;;;;;;;40.70;30.85;;;12.20;99.90;;;;;;5074512;28;20089;-71
2022/10/31 10:08:27;;;;;;;31.90;26.90;;;12.20;99.90;;;;;;5073397;28;20053;-71
2022/10/31 10:11:12;;;;;;;38.42;27.45;;;12.30;99.90;;;;;;5008158;28;20060;-70
2022/10/31 10:13:58;;;;;;;32.38;26.90;;;12.40;99.90;;;;;;5054845;28;20416;-71
2022/10/31 10:16:47;;;;;;;36.05;26.40;;;12.50;99.90;;;;;;5054536;28;20044;-71
2022/10/31 10:19:24;;;;;;;32.72;25.85;;;12.50;99.90;;;;;;5054502;28;20048;-70
2022/10/31 10:22:13;;;;;;;38.53;28.58;;;12.60;99.90;;;;;;5054711;28;20072;-71
2022/10/31 10:25:01;;;;;;;32.95;25.25;;;12.70;99.90;;;;;;5056663;28;20045;-70
2022/10/31 10:27:45;;;;;;;37.13;25.92;;;12.70;99.90;;;;;;5060026;28;20099;-70
2022/10/31 10:30:17;;;;;;;27.92;22.85;;;12.70;99.90;;;;;;5078412;28;20036;-70
2022/10/31 10:32:47;;;;;;;36.60;23.48;;;12.80;99.90;;;;;;5078994;28;20052;-70
2022/10/31 10:35:33;;;;;;;36.38;25.45;;;12.80;99.90;;;;;;5078932;28;20057;-71
2022/10/31 10:38:09;;;;;;;28.73;21.95;;;12.80;99.90;;;;;;5078306;28;20048;-71
2022/10/31 10:40:34;;;;;;;27.85;20.98;;;12.90;99.90;;;;;;5078473;28;20349;-71
2022/10/31 10:43:18;;;;;;;28.02;22.13;;;12.90;99.90;;;;;;5067958;28;20053;-72
2022/10/31 10:49:23;;;;;;;36.47;23.77;;;13.10;99.90;;;;;;5058560;28;20163;-69
2022/10/31 10:51:58;;;;;;;27.05;20.52;;;13.10;99.90;;;;;;5057628;28;20137;-70
2022/10/31 10:54:56;;;;;;;27.40;19.35;;;13.20;99.90;;;;;;5040787;28;20120;-69
2022/10/31 10:57:58;;;;;;;24.50;19.25;;;13.20;99.90;;;;;;5058120;28;20040;-70
2022/10/31 11:00:37;;;;;;;27.35;16.92;;;13.40;99.90;;;;;;5077444;28;20056;-70
2022/10/31 11:03:04;;;;;;;31.27;16.75;;;13.50;99.90;;;;;;5077676;28;20346;-70
2022/10/31 11:05:54;;;;;;;25.50;15.95;;;13.60;99.90;;;;;;5059802;28;20071;-70
2022/10/31 11:08:26;;;;;;;20.30;14.02;;;13.70;99.90;;;;;;5077776;28;20323;-71
2022/10/31 11:11:23;;;;;;;22.65;14.65;;;13.80;99.90;;;;;;5077460;28;20127;-71
2022/10/31 11:13:51;;;;;;;18.90;13.65;;;13.80;99.90;;;;;;5057741;28;20075;-70
2022/10/31 11:16:25;;;;;;;19.45;12.95;;;13.80;99.90;;;;;;5057228;28;20450;-71
2022/10/31 11:18:51;;;;;;;20.27;13.98;;;13.80;99.90;;;;;;5055078;28;20090;-72
2022/10/31 11:21:36;;;;;;;20.98;12.77;;;13.80;99.90;;;;;;5057120;28;20461;-73
2022/10/31 11:24:10;;;;;;;16.95;12.20;;;13.80;99.90;;;;;;5057042;28;20037;-72
2022/10/31 11:26:39;;;;;;;22.17;12.23;;;13.90;99.90;;;;;;5057882;28;20060;-71
2022/10/31 11:29:07;;;;;;;20.30;11.75;;;13.90;99.90;;;;;;5057103;28;20033;-71
2022/10/31 11:31:35;;;;;;;16.00;10.93;;;14.00;99.90;;;;;;5056871;28;20060;-71
2022/10/31 11:34:03;;;;;;;17.20;10.48;;;14.10;99.90;;;;;;5071230;28;20350;-70
2022/10/31 11:36:33;;;;;;;18.05;10.57;;;14.10;99.90;;;;;;5076987;28;20448;-71
2022/10/31 11:39:00;;;;;;;16.10;9.57;;;14.20;99.90;;;;;;5076783;28;20449;-70
2022/10/31 11:41:32;;;;;;;15.63;9.38;;;14.20;99.90;;;;;;5077017;28;20468;-71
2022/10/31 11:44:04;;;;;;;14.95;8.68;;;14.40;99.90;;;;;;5077739;28;20048;-71
2022/10/31 11:46:39;;;;;;;12.38;7.75;;;14.50;99.90;;;;;;5075207;28;20114;-72
2022/10/31 11:49:06;;;;;;;14.10;7.30;;;14.60;99.90;;;;;;5056324;28;20033;-71
2022/10/31 11:51:33;;;;;;;14.90;8.02;;;14.80;99.90;;;;;;5046454;28;20087;-70
2022/10/31 11:54:02;;;;;;;13.02;7.93;;;14.90;99.90;;;;;;5056730;28;20049;-72
2022/10/31 11:56:37;;;;;;;12.98;7.88;;;15.10;99.90;;;;;;5057522;28;20053;-73
2022/10/31 11:59:05;;;;;;;13.48;7.60;;;15.10;99.90;;;;;;5058244;28;20048;-73
2022/10/31 12:01:32;;;;;;;11.57;7.35;;;15.20;99.90;;;;;;5054029;28;20056;-72
2022/10/31 12:04:08;;;;;;;13.48;5.85;;;15.30;99.90;;;;;;5053544;28;20045;-73
2022/10/31 12:06:42;;;;;;;13.73;5.70;;;15.40;99.90;;;;;;5048230;28;20488;-72
2022/10/31 12:09:22;;;;;;;10.63;5.03;;;15.40;99.90;;;;;;5076104;28;20036;-72
2022/10/31 12:12:30;;;;;;;10.65;4.65;;;15.50;99.90;;;;;;5075939;28;20052;-73
2022/10/31 12:15:04;;;;;;;8.30;3.97;;;15.50;99.90;;;;;;5047384;28;20056;-72
2022/10/31 12:17:56;;;;;;;11.55;4.53;;;15.50;99.90;;;;;;5075619;28;20357;-72
2022/10/31 12:20:40;;;;;;;11.48;5.00;;;15.60;99.90;;;;;;5026777;28;20044;-72
2022/10/31 12:23:24;;;;;;;10.32;5.60;;;15.60;99.90;;;;;;5076105;28;20131;-72
2022/10/31 12:25:55;;;;;;;11.05;5.90;;;15.60;99.90;;;;;;5075522;28;20044;-71
2022/10/31 12:28:41;;;;;;;14.48;7.35;;;15.60;99.90;;;;;;5075859;28;20052;-71
2022/10/31 12:31:30;;;;;;;12.73;7.28;;;15.60;99.90;;;;;;5075358;28;20055;-73
2022/10/31 12:34:17;;;;;;;16.77;8.98;;;15.60;99.90;;;;;;5075439;28;20048;-73
2022/10/31 12:36:54;;;;;;;16.65;9.00;;;15.60;99.90;;;;;;5057992;28;20045;-72
2022/10/31 12:39:54;;;;;;;15.82;9.32;;;15.60;99.90;;;;;;5055457;28;20127;-74
2022/10/31 12:42:43;;;;;;;16.15;8.93;;;15.60;99.90;;;;;;5055913;28;20048;-72
2022/10/31 12:45:11;;;;;;;25.20;8.90;;;15.60;99.90;;;;;;5074443;28;20476;-72
2022/10/31 12:47:52;;;;;;;32.42;9.95;;;15.50;99.90;;;;;;5068280;28;20468;-72
2022/10/31 12:50:56;;;;;;;14.25;8.60;;;15.50;99.90;;;;;;5074767;28;20044;-73
2022/10/31 12:53:33;;;;;;;17.60;9.23;;;15.50;99.90;;;;;;5074531;28;20048;-73